createdAt,value
2023-04-02T00:02:30.513Z,14.04
2023-04-02T00:05:19.771Z,13.88
2023-04-02T00:07:52.133Z,13.61
2023-04-02T00:10:36.974Z,13.57
2023-04-02T00:13:03.520Z,13.54
2023-04-02T00:15:30.801Z,13.47
2023-04-02T00:17:58.863Z,13.55
2023-04-02T00:20:27.575Z,13.57
2023-04-02T00:22:56.187Z,13.71
2023-04-02T00:25:25.742Z,13.79
2023-04-02T00:27:52.731Z,13.86
2023-04-02T00:30:19.371Z,13.92
2023-04-02T00:32:46.349Z,13.92
2023-04-02T00:35:25.552Z,14.01
2023-04-02T00:37:52.847Z,14.04
2023-04-02T00:40:31.848Z,14.19
2023-04-02T00:43:01.168Z,13.76
2023-04-02T00:45:32.075Z,13.14
2023-04-02T00:48:13.195Z,12.84
2023-04-02T00:50:42.836Z,12.66
2023-04-02T00:53:24.452Z,12.52
2023-04-02T00:55:51.675Z,12.50
2023-04-02T00:58:30.037Z,12.55
2023-04-02T01:00:56.984Z,12.40
2023-04-02T01:03:30.085Z,12.48
2023-04-02T01:06:12.667Z,12.56
2023-04-02T01:09:02.327Z,12.60
2023-04-02T01:12:06.437Z,12.67
2023-04-02T01:15:12.088Z,12.78
2023-04-02T01:17:38.621Z,12.90
2023-04-02T01:20:34.366Z,12.86
2023-04-02T01:23:10.181Z,12.91
2023-04-02T01:25:57.139Z,12.91
2023-04-02T01:28:35.623Z,12.83
2023-04-02T01:31:03.980Z,12.77
2023-04-02T01:33:34.313Z,12.87
2023-04-02T01:36:12.205Z,12.90
2023-04-02T01:39:02.234Z,13.10
2023-04-02T01:41:36.412Z,13.26
2023-04-02T01:44:49.350Z,13.39
2023-04-02T01:47:19.461Z,13.52
2023-04-02T01:49:46.531Z,13.63
2023-04-02T01:52:19.518Z,13.69
2023-04-02T01:54:47.775Z,13.78
2023-04-02T01:57:14.602Z,13.89
2023-04-02T01:59:41.285Z,13.96
2023-04-02T02:02:13.147Z,13.92
2023-04-02T02:04:40.715Z,14.01
2023-04-02T02:07:14.727Z,14.05
2023-04-02T02:09:42.557Z,14.02
2023-04-02T02:12:13.790Z,14.04
2023-04-02T02:14:46.982Z,14.05
2023-04-02T02:17:19.844Z,14.08
2023-04-02T02:19:51.857Z,14.07
2023-04-02T02:22:29.734Z,14.11
2023-04-02T02:25:00.634Z,14.08
2023-04-02T02:27:27.330Z,14.10
2023-04-02T02:29:58.510Z,14.07
2023-04-02T02:32:31.027Z,14.07
2023-04-02T02:35:08.520Z,14.05
2023-04-02T02:37:43.434Z,13.97
2023-04-02T02:40:17.397Z,14.03
2023-04-02T02:42:51.254Z,14.04
2023-04-02T02:45:30.358Z,13.99
2023-04-02T02:47:59.011Z,14.00
2023-04-02T02:50:31.829Z,13.99
2023-04-02T02:53:02.908Z,13.93
2023-04-02T02:55:34.570Z,13.84
2023-04-02T02:58:07.009Z,13.78
2023-04-02T03:00:36.096Z,13.61
2023-04-02T03:03:08.030Z,13.56
2023-04-02T03:05:36.084Z,13.54
2023-04-02T03:08:06.967Z,13.47
2023-04-02T03:10:48.646Z,13.43
2023-04-02T03:13:21.931Z,13.39
2023-04-02T03:16:13.016Z,13.34
2023-04-02T03:19:17.027Z,13.37
2023-04-02T03:21:56.747Z,13.38
2023-04-02T03:24:39.759Z,13.50
2023-04-02T03:27:13.918Z,13.59
2023-04-02T03:29:46.468Z,13.68
2023-04-02T03:32:20.098Z,13.65
2023-04-02T03:34:49.630Z,13.64
2023-04-02T03:37:22.440Z,13.64
2023-04-02T03:40:02.001Z,13.60
2023-04-02T03:42:37.212Z,13.61
2023-04-02T03:45:28.722Z,13.61
2023-04-02T03:47:58.475Z,13.61
2023-04-02T03:50:31.333Z,13.67
2023-04-02T03:53:00.294Z,13.64
2023-04-02T03:55:30.556Z,13.63
2023-04-02T03:58:06.974Z,13.62
2023-04-02T04:00:55.056Z,13.64
2023-04-02T04:03:27.022Z,13.59
2023-04-02T04:06:00.294Z,13.54
2023-04-02T04:08:54.823Z,13.50
2023-04-02T04:11:30.898Z,13.44
2023-04-02T04:14:34.787Z,13.39
2023-04-02T04:17:30.076Z,13.32
2023-04-02T04:20:22.295Z,13.27
2023-04-02T04:22:50.572Z,13.23
2023-04-02T04:25:22.695Z,13.21
2023-04-02T04:27:58.326Z,13.21
2023-04-02T04:30:35.002Z,13.19
2023-04-02T04:33:15.378Z,13.23
2023-04-02T04:35:48.730Z,13.22
2023-04-02T04:38:39.560Z,13.30
2023-04-02T04:41:14.215Z,13.35
2023-04-02T04:43:46.420Z,13.42
2023-04-02T04:46:18.457Z,13.44
2023-04-02T04:49:06.777Z,13.40
2023-04-02T04:51:48.025Z,13.30
2023-04-02T04:54:16.118Z,13.38
2023-04-02T04:56:50.073Z,13.32
2023-04-02T04:59:50.227Z,13.36
2023-04-02T05:02:24.165Z,13.33
2023-04-02T05:04:52.887Z,13.30
2023-04-02T05:07:23.425Z,13.32
2023-04-02T05:09:55.903Z,13.28
2023-04-02T05:12:48.555Z,13.12
2023-04-02T05:15:42.167Z,13.06
2023-04-02T05:18:27.282Z,12.94
2023-04-02T05:21:02.073Z,12.98
2023-04-02T05:23:34.414Z,12.96
2023-04-02T05:26:12.052Z,12.91
2023-04-02T05:28:46.367Z,12.87
2023-04-02T05:31:31.313Z,12.82
2023-04-02T05:33:58.129Z,12.77
2023-04-02T05:36:27.912Z,12.69
2023-04-02T05:38:56.458Z,12.62
2023-04-02T05:41:36.855Z,12.66
2023-04-02T05:44:39.056Z,12.69
2023-04-02T05:47:12.472Z,12.55
2023-04-02T05:49:39.311Z,12.59
2023-04-02T05:52:12.092Z,12.54
2023-04-02T05:54:46.352Z,12.72
2023-04-02T05:57:19.361Z,12.82
2023-04-02T05:59:58.785Z,12.90
2023-04-02T06:02:33.151Z,12.88
2023-04-02T06:05:11.761Z,12.76
2023-04-02T06:07:59.530Z,12.71
2023-04-02T06:10:31.370Z,12.76
2023-04-02T06:13:08.687Z,12.79
2023-04-02T06:15:37.542Z,12.81
2023-04-02T06:18:16.539Z,12.83
2023-04-02T06:20:43.274Z,12.83
2023-04-02T06:23:13.761Z,12.86
2023-04-02T06:25:46.831Z,12.88
2023-04-02T06:28:21.424Z,12.85
2023-04-02T06:30:49.246Z,12.92
2023-04-02T06:33:18.645Z,12.94
2023-04-02T06:35:48.731Z,12.98
2023-04-02T06:38:25.744Z,12.96
2023-04-02T06:40:59.965Z,13.00
2023-04-02T06:43:38.719Z,12.99
2023-04-02T06:46:09.736Z,13.05
2023-04-02T06:48:37.924Z,13.00
2023-04-02T06:51:10.774Z,13.09
2023-04-02T06:53:41.850Z,13.08
2023-04-02T06:56:28.592Z,13.19
2023-04-02T06:58:55.565Z,13.23
2023-04-02T07:01:26.952Z,13.33
2023-04-02T07:03:54.570Z,13.34
2023-04-02T07:06:22.540Z,13.39
2023-04-02T07:08:49.765Z,13.50
2023-04-02T07:11:22.153Z,13.53
2023-04-02T07:13:50.162Z,13.50
2023-04-02T07:16:19.642Z,13.48
2023-04-02T07:18:49.929Z,13.55
2023-04-02T07:21:16.736Z,13.51
2023-04-02T07:23:43.493Z,13.45
2023-04-02T07:26:15.506Z,13.51
2023-04-02T07:28:42.812Z,13.50
2023-04-02T07:31:19.645Z,13.52
2023-04-02T07:33:46.604Z,13.50
2023-04-02T07:36:16.516Z,13.53
2023-04-02T07:38:48.296Z,13.56
2023-04-02T07:41:16.299Z,13.52
2023-04-02T07:43:43.639Z,13.44
2023-04-02T07:46:11.724Z,13.41
2023-04-02T07:48:38.472Z,13.30
2023-04-02T07:51:26.879Z,13.31
2023-04-02T07:53:57.556Z,13.27
2023-04-02T07:56:25.865Z,13.16
2023-04-02T07:58:53.282Z,13.20
2023-04-02T08:01:24.608Z,13.22
2023-04-02T08:03:55.614Z,13.20
2023-04-02T08:06:24.097Z,13.21
2023-04-02T08:08:50.767Z,13.20
2023-04-02T08:11:17.456Z,13.22
2023-04-02T08:13:44.086Z,13.21
2023-04-02T08:16:11.201Z,13.22
2023-04-02T08:18:37.996Z,13.29
2023-04-02T08:21:09.272Z,13.36
2023-04-02T08:23:36.264Z,13.26
2023-04-02T08:26:04.277Z,13.25
2023-04-02T08:28:31.182Z,13.18
2023-04-02T08:30:57.887Z,13.09
2023-04-02T08:33:24.688Z,13.26
2023-04-02T08:35:51.682Z,13.37
2023-04-02T08:38:21.652Z,13.43
2023-04-02T08:40:51.891Z,13.61
2023-04-02T08:43:41.990Z,13.78
2023-04-02T08:46:19.723Z,13.89
2023-04-02T08:48:55.347Z,13.95
2023-04-02T08:51:28.305Z,14.08
2023-04-02T08:54:00.426Z,14.71
2023-04-02T08:56:37.412Z,16.21
2023-04-02T08:59:12.880Z,16.91
2023-04-02T09:01:56.899Z,17.41
2023-04-02T09:04:25.613Z,17.74
2023-04-02T09:06:55.124Z,18.15
2023-04-02T09:09:23.475Z,18.20
2023-04-02T09:12:04.218Z,18.45
2023-04-02T09:14:42.994Z,19.08
2023-04-02T09:17:25.014Z,18.93
2023-04-02T09:20:13.635Z,18.80
2023-04-02T09:22:40.212Z,18.85
2023-04-02T09:25:14.907Z,19.62
2023-04-02T09:27:41.533Z,19.20
2023-04-02T09:30:25.390Z,20.51
2023-04-02T09:32:54.623Z,21.23
2023-04-02T09:35:27.028Z,21.51
2023-04-02T09:38:30.774Z,20.18
2023-04-02T09:41:01.688Z,19.90
2023-04-02T09:43:38.937Z,19.90
2023-04-02T09:46:21.819Z,19.79
2023-04-02T09:49:00.880Z,20.32
2023-04-02T09:51:36.691Z,20.13
2023-04-02T09:54:03.315Z,19.79
2023-04-02T09:56:35.490Z,18.40
2023-04-02T09:59:17.281Z,17.84
2023-04-02T10:01:56.627Z,17.52
2023-04-02T10:04:47.994Z,17.43
2023-04-02T10:07:31.501Z,17.25
2023-04-02T10:10:28.629Z,17.55
2023-04-02T10:13:01.522Z,17.70
2023-04-02T10:15:42.406Z,17.85
2023-04-02T10:18:21.670Z,18.10
2023-04-02T10:20:52.769Z,17.96
2023-04-02T10:23:19.829Z,17.77
2023-04-02T10:26:15.970Z,18.17
2023-04-02T10:28:57.702Z,19.06
2023-04-02T10:31:46.826Z,19.04
2023-04-02T10:34:23.460Z,19.05
2023-04-02T10:36:54.420Z,18.33
2023-04-02T10:39:46.051Z,18.11
2023-04-02T10:42:30.996Z,18.07
2023-04-02T10:45:04.829Z,18.17
2023-04-02T10:47:51.680Z,17.96
2023-04-02T10:50:32.445Z,17.97
2023-04-02T10:53:17.967Z,18.52
2023-04-02T10:55:51.006Z,18.48
2023-04-02T10:58:26.326Z,18.64
2023-04-02T11:01:06.957Z,18.72
2023-04-02T11:03:43.480Z,18.65
2023-04-02T11:06:21.246Z,18.88
2023-04-02T11:08:52.381Z,19.10
2023-04-02T11:11:23.635Z,18.83
2023-04-02T11:13:53.014Z,18.89
2023-04-02T11:16:20.003Z,19.02
2023-04-02T11:19:14.474Z,19.05
2023-04-02T11:21:55.050Z,19.81
2023-04-02T11:24:33.634Z,19.42
2023-04-02T11:27:26.198Z,18.88
2023-04-02T11:29:55.781Z,18.96
2023-04-02T11:32:24.066Z,18.90
2023-04-02T11:35:06.738Z,18.42
2023-04-02T11:37:33.974Z,18.18
2023-04-02T11:40:06.004Z,18.22
2023-04-02T11:42:46.570Z,17.85
2023-04-02T11:45:24.978Z,18.06
2023-04-02T11:48:06.095Z,17.95
2023-04-02T11:50:34.878Z,17.78
2023-04-02T11:53:05.538Z,17.73
2023-04-02T11:55:35.040Z,17.83
2023-04-02T11:58:04.876Z,17.39
2023-04-02T12:00:56.323Z,17.26
2023-04-02T12:03:37.283Z,17.22
2023-04-02T12:06:39.959Z,17.44
2023-04-02T12:09:30.182Z,17.36
2023-04-02T12:12:00.748Z,17.90
2023-04-02T12:14:36.583Z,18.08
2023-04-02T12:17:07.736Z,18.07
2023-04-02T12:19:36.506Z,18.34
2023-04-02T12:22:03.505Z,18.77
2023-04-02T12:24:31.494Z,18.99
2023-04-02T12:27:17.357Z,19.33
2023-04-02T12:29:44.275Z,19.28
2023-04-02T12:32:30.019Z,19.33
2023-04-02T12:35:04.636Z,19.19
2023-04-02T12:37:31.492Z,19.29
2023-04-02T12:40:16.077Z,19.45
2023-04-02T12:42:42.825Z,19.40
2023-04-02T12:45:29.690Z,19.39
2023-04-02T12:47:58.796Z,19.40
2023-04-02T12:50:26.117Z,19.52
2023-04-02T12:52:55.164Z,19.59
2023-04-02T12:55:27.136Z,19.58
2023-04-02T12:57:58.440Z,19.75
2023-04-02T13:00:25.345Z,19.89
2023-04-02T13:03:18.630Z,19.79
2023-04-02T13:05:57.022Z,19.60
2023-04-02T13:08:31.083Z,19.66
2023-04-02T13:11:03.007Z,19.87
2023-04-02T13:13:44.846Z,19.88
2023-04-02T13:16:17.793Z,20.03
2023-04-02T13:18:46.839Z,20.20
2023-04-02T13:21:16.365Z,20.38
2023-04-02T13:23:44.177Z,20.39
2023-04-02T13:26:13.680Z,20.35
2023-04-02T13:28:40.309Z,20.46
2023-04-02T13:31:14.684Z,20.62
2023-04-02T13:33:41.726Z,20.60
2023-04-02T13:36:14.319Z,20.40
2023-04-02T13:38:41.251Z,20.51
2023-04-02T13:41:28.805Z,20.74
2023-04-02T13:43:58.095Z,20.91
2023-04-02T13:46:27.941Z,20.68
2023-04-02T13:48:55.858Z,20.39
2023-04-02T13:51:26.385Z,20.55
2023-04-02T13:53:57.535Z,20.36
2023-04-02T13:56:25.148Z,20.42
2023-04-02T13:58:52.168Z,20.40
2023-04-02T14:01:22.884Z,20.63
2023-04-02T14:03:51.425Z,20.29
2023-04-02T14:06:23.848Z,19.98
2023-04-02T14:08:59.196Z,20.27
2023-04-02T14:11:44.607Z,20.58
2023-04-02T14:14:29.140Z,20.89
2023-04-02T14:17:21.155Z,20.42
2023-04-02T14:20:16.338Z,20.70
2023-04-02T14:23:11.072Z,20.39
2023-04-02T14:26:07.738Z,20.50
2023-04-02T14:28:57.638Z,20.57
2023-04-02T14:31:38.790Z,21.02
2023-04-02T14:34:38.621Z,20.46
2023-04-02T14:37:23.173Z,20.38
2023-04-02T14:40:01.689Z,20.33
2023-04-02T14:42:33.304Z,20.47
2023-04-02T14:45:08.121Z,20.25
2023-04-02T14:47:45.200Z,20.34
2023-04-02T14:50:17.254Z,20.14
2023-04-02T14:52:51.545Z,20.18
2023-04-02T14:55:24.116Z,19.95
2023-04-02T14:57:53.866Z,19.93
2023-04-02T15:00:24.193Z,19.98
2023-04-02T15:02:57.943Z,19.90
2023-04-02T15:05:38.009Z,19.78
2023-04-02T15:08:16.028Z,19.77
2023-04-02T15:11:08.546Z,19.74
2023-04-02T15:13:44.360Z,19.60
2023-04-02T15:16:21.012Z,19.68
2023-04-02T15:18:52.397Z,19.58
2023-04-02T15:21:29.667Z,19.47
2023-04-02T15:24:24.434Z,19.59
2023-04-02T15:27:25.491Z,19.65
2023-04-02T15:30:14.906Z,19.63
2023-04-02T15:32:43.583Z,19.64
2023-04-02T15:35:45.595Z,19.61
2023-04-02T15:38:21.617Z,19.65
2023-04-02T15:40:59.290Z,19.71
2023-04-02T15:44:06.147Z,19.73
2023-04-02T15:46:55.948Z,19.76
2023-04-02T15:49:45.876Z,19.74
2023-04-02T15:52:34.964Z,19.71
2023-04-02T15:55:37.501Z,19.67
2023-04-02T15:58:41.853Z,19.42
2023-04-02T16:01:30.203Z,19.24
2023-04-02T16:04:18.051Z,19.14
2023-04-02T16:07:31.625Z,19.08
2023-04-02T16:10:01.265Z,19.04
2023-04-02T16:12:30.904Z,19.05
2023-04-02T16:15:13.978Z,19.05
2023-04-02T16:17:50.031Z,19.04
2023-04-02T16:20:28.574Z,19.07
2023-04-02T16:23:01.156Z,19.05
2023-04-02T16:25:35.212Z,18.98
2023-04-02T16:28:17.856Z,18.92
2023-04-02T16:30:48.614Z,18.94
2023-04-02T16:33:27.342Z,18.93
2023-04-02T16:35:53.918Z,18.89
2023-04-02T16:38:48.320Z,18.86
2023-04-02T16:41:50.628Z,18.85
2023-04-02T16:44:28.835Z,18.81
2023-04-02T16:47:18.357Z,18.79
2023-04-02T16:49:57.031Z,18.69
2023-04-02T16:52:23.573Z,18.61
2023-04-02T16:55:27.702Z,18.58
2023-04-02T16:58:14.150Z,18.52
2023-04-02T17:01:18.927Z,18.50
2023-04-02T17:03:59.312Z,18.44
2023-04-02T17:06:43.834Z,18.34
2023-04-02T17:09:15.547Z,18.19
2023-04-02T17:12:10.690Z,18.07
2023-04-02T17:15:02.449Z,17.92
2023-04-02T17:17:30.469Z,17.79
2023-04-02T17:20:00.733Z,17.66
2023-04-02T17:22:31.539Z,17.56
2023-04-02T17:25:01.604Z,17.46
2023-04-02T17:27:41.398Z,17.30
2023-04-02T17:30:17.597Z,17.16
2023-04-02T17:32:44.262Z,17.04
2023-04-02T17:35:42.543Z,16.85
2023-04-02T17:38:34.908Z,16.75
2023-04-02T17:41:11.920Z,16.50
2023-04-02T17:43:55.996Z,16.29
2023-04-02T17:46:26.085Z,16.13
2023-04-02T17:49:02.612Z,16.06
2023-04-02T17:51:55.328Z,15.93
2023-04-02T17:55:01.979Z,15.57
2023-04-02T17:57:45.587Z,15.48
2023-04-02T18:00:21.166Z,15.33
2023-04-02T18:03:10.504Z,15.15
2023-04-02T18:05:48.408Z,15.02
2023-04-02T18:08:15.871Z,14.94
2023-04-02T18:11:03.964Z,14.87
2023-04-02T18:13:57.745Z,14.79
2023-04-02T18:16:42.795Z,14.72
2023-04-02T18:19:31.225Z,14.65
2023-04-02T18:22:07.915Z,14.60
2023-04-02T18:25:14.946Z,14.57
2023-04-02T18:27:56.812Z,14.56
2023-04-02T18:30:33.347Z,14.52
2023-04-02T18:32:59.984Z,14.53
2023-04-02T18:35:48.259Z,14.52
2023-04-02T18:38:31.606Z,14.54
2023-04-02T18:41:13.193Z,14.53
2023-04-02T18:43:51.421Z,14.53
2023-04-02T18:46:36.972Z,14.50
2023-04-02T18:49:22.821Z,14.51
2023-04-02T18:52:00.400Z,14.51
2023-04-02T18:54:34.202Z,14.47
2023-04-02T18:57:12.362Z,14.52
2023-04-02T18:59:51.099Z,14.52
2023-04-02T19:02:41.495Z,14.53
2023-04-02T19:05:37.003Z,14.55
2023-04-02T19:08:16.515Z,14.57
2023-04-02T19:10:51.370Z,14.60
2023-04-02T19:13:19.743Z,14.61
2023-04-02T19:16:05.170Z,14.63
2023-04-02T19:19:05.633Z,14.60
2023-04-02T19:21:34.827Z,14.58
2023-04-02T19:24:11.234Z,14.62
2023-04-02T19:27:06.901Z,14.53
2023-04-02T19:29:36.230Z,14.55
2023-04-02T19:32:14.933Z,14.41
2023-04-02T19:34:59.581Z,14.32
2023-04-02T19:37:41.429Z,14.19
2023-04-02T19:40:08.641Z,14.21
2023-04-02T19:42:52.219Z,14.23
2023-04-02T19:45:42.044Z,14.19
2023-04-02T19:48:31.072Z,14.17
2023-04-02T19:50:58.054Z,14.16
2023-04-02T19:53:24.630Z,14.16
2023-04-02T19:55:51.404Z,14.10
2023-04-02T19:58:30.181Z,14.02
2023-04-02T20:00:57.369Z,14.03
2023-04-02T20:03:24.528Z,14.03
2023-04-02T20:05:52.105Z,14.09
2023-04-02T20:08:19.082Z,14.07
2023-04-02T20:10:46.350Z,14.02
2023-04-02T20:13:13.079Z,14.00
2023-04-02T20:15:41.385Z,13.82
2023-04-02T20:18:09.403Z,13.86
2023-04-02T20:20:37.565Z,13.81
2023-04-02T20:23:04.678Z,13.77
2023-04-02T20:25:32.056Z,13.68
2023-04-02T20:28:00.836Z,13.62
2023-04-02T20:30:27.375Z,13.58
2023-04-02T20:32:55.745Z,13.51
2023-04-02T20:35:22.583Z,13.53
2023-04-02T20:37:49.184Z,13.68
2023-04-02T20:40:16.010Z,13.76
2023-04-02T20:42:42.629Z,13.71
2023-04-02T20:45:09.931Z,13.75
2023-04-02T20:47:36.661Z,13.78
2023-04-02T20:50:03.428Z,13.77
2023-04-02T20:52:30.400Z,13.80
2023-04-02T20:54:57.470Z,13.82
2023-04-02T20:57:26.181Z,13.91
2023-04-02T20:59:53.122Z,13.91
2023-04-02T21:02:19.710Z,13.89
2023-04-02T21:04:46.367Z,13.92
2023-04-02T21:07:12.952Z,13.93
2023-04-02T21:09:39.514Z,13.95
2023-04-02T21:12:06.621Z,13.94
2023-04-02T21:14:37.779Z,13.94
2023-04-02T21:17:06.786Z,13.93
2023-04-02T21:19:34.540Z,13.96
2023-04-02T21:22:01.445Z,13.90
2023-04-02T21:24:28.099Z,13.76
2023-04-02T21:26:54.894Z,13.68
2023-04-02T21:29:21.476Z,13.63
2023-04-02T21:31:48.237Z,13.57
2023-04-02T21:34:17.018Z,13.48
2023-04-02T21:36:46.105Z,13.43
2023-04-02T21:39:18.205Z,13.34
2023-04-02T21:41:47.259Z,13.29
2023-04-02T21:44:15.425Z,13.09
2023-04-02T21:46:42.836Z,12.96
2023-04-02T21:49:11.803Z,12.94
2023-04-02T21:51:40.913Z,12.85
2023-04-02T21:54:08.067Z,12.81
2023-04-02T21:56:40.457Z,12.70
2023-04-02T21:59:09.039Z,12.64
2023-04-02T22:01:42.746Z,12.62
2023-04-02T22:04:11.723Z,12.64
2023-04-02T22:06:40.710Z,12.54
2023-04-02T22:09:09.584Z,12.50
2023-04-02T22:11:37.816Z,12.44
2023-04-02T22:14:05.889Z,12.40
2023-04-02T22:16:34.780Z,12.34
2023-04-02T22:19:02.729Z,12.25
2023-04-02T22:21:30.770Z,12.22
2023-04-02T22:24:01.670Z,12.21
2023-04-02T22:26:28.511Z,12.16
2023-04-02T22:28:55.343Z,12.10
2023-04-02T22:31:24.936Z,12.10
2023-04-02T22:33:53.889Z,12.04
2023-04-02T22:36:22.454Z,11.99
2023-04-02T22:38:49.481Z,12.00
2023-04-02T22:41:27.638Z,11.98
2023-04-02T22:43:56.667Z,12.00
2023-04-02T22:46:25.567Z,11.91
2023-04-02T22:48:52.701Z,11.91
2023-04-02T22:51:21.118Z,11.95
2023-04-02T22:53:48.627Z,11.99
2023-04-02T22:56:18.501Z,12.09
2023-04-02T22:58:45.610Z,12.24
2023-04-02T23:01:15.955Z,12.27
2023-04-02T23:03:43.145Z,12.28
2023-04-02T23:06:17.072Z,12.25
2023-04-02T23:08:44.145Z,12.23
2023-04-02T23:11:13.386Z,12.22
2023-04-02T23:13:40.885Z,12.26
2023-04-02T23:16:11.186Z,12.17
2023-04-02T23:18:39.371Z,12.15
2023-04-02T23:21:06.710Z,12.07
2023-04-02T23:23:34.043Z,12.02
2023-04-02T23:26:08.189Z,11.91
2023-04-02T23:28:36.087Z,11.87
2023-04-02T23:31:04.705Z,11.85
2023-04-02T23:33:31.750Z,11.81
2023-04-02T23:35:58.694Z,11.76
2023-04-02T23:38:26.715Z,11.77
2023-04-02T23:40:53.685Z,11.71
2023-04-02T23:43:20.478Z,11.71
2023-04-02T23:45:48.814Z,11.68
2023-04-02T23:48:16.534Z,11.62
2023-04-02T23:50:46.457Z,11.64
2023-04-02T23:53:13.571Z,11.64
2023-04-02T23:55:40.593Z,11.61
2023-04-02T23:58:07.342Z,11.61
